sensor_id;sensor_type;location;lat;lon;timestamp;pressure;altitude;pressure_sealevel;temperature;humidity
59154;BME280;44935;48.944;9.418;2022-09-17T00:01:19;98304.48;;;11.36;53.71
59154;BME280;44935;48.944;9.418;2022-09-17T00:03:52;98305.80;;;11.68;52.92
59154;BME280;44935;48.944;9.418;2022-09-17T00:06:21;98308.62;;;11.60;53.43
59154;BME280;44935;48.944;9.418;2022-09-17T00:08:50;98308.46;;;11.76;52.73
59154;BME280;44935;48.944;9.418;2022-09-17T00:11:18;98305.49;;;12.00;52.33
59154;BME280;44935;48.944;9.418;2022-09-17T00:13:47;98309.77;;;11.93;52.39
59154;BME280;44935;48.944;9.418;2022-09-17T00:16:22;98313.19;;;11.86;52.83
59154;BME280;44935;48.944;9.418;2022-09-17T00:18:50;98311.36;;;11.62;53.14
59154;BME280;44935;48.944;9.418;2022-09-17T00:21:18;98314.77;;;11.58;53.24
59154;BME280;44935;48.944;9.418;2022-09-17T00:23:54;98316.18;;;11.54;53.35
59154;BME280;44935;48.944;9.418;2022-09-17T00:26:28;98313.60;;;11.47;53.61
59154;BME280;44935;48.944;9.418;2022-09-17T00:28:56;98312.37;;;11.80;53.49
59154;BME280;44935;48.944;9.418;2022-09-17T00:31:25;98312.51;;;11.58;53.90
59154;BME280;44935;48.944;9.418;2022-09-17T00:33:59;98311.43;;;11.68;53.90
59154;BME280;44935;48.944;9.418;2022-09-17T00:36:27;98315.28;;;11.77;53.26
59154;BME280;44935;48.944;9.418;2022-09-17T00:38:56;98314.29;;;11.55;53.54
59154;BME280;44935;48.944;9.418;2022-09-17T00:41:24;98314.60;;;11.98;53.38
59154;BME280;44935;48.944;9.418;2022-09-17T00:43:53;98312.85;;;12.12;52.59
59154;BME280;44935;48.944;9.418;2022-09-17T00:46:26;98314.80;;;12.21;51.84
59154;BME280;44935;48.944;9.418;2022-09-17T00:48:57;98316.91;;;12.28;52.03
59154;BME280;44935;48.944;9.418;2022-09-17T00:51:31;98314.45;;;12.71;51.49
59154;BME280;44935;48.944;9.418;2022-09-17T00:54:07;98309.17;;;12.56;51.51
59154;BME280;44935;48.944;9.418;2022-09-17T00:56:38;98310.24;;;12.49;51.17
59154;BME280;44935;48.944;9.418;2022-09-17T00:59:10;98305.40;;;12.10;51.89
59154;BME280;44935;48.944;9.418;2022-09-17T01:01:37;98315.80;;;12.41;51.41
59154;BME280;44935;48.944;9.418;2022-09-17T01:04:03;98322.04;;;12.68;50.53
59154;BME280;44935;48.944;9.418;2022-09-17T01:06:34;98326.21;;;12.26;50.22
59154;BME280;44935;48.944;9.418;2022-09-17T01:09:17;98330.86;;;12.99;49.56
59154;BME280;44935;48.944;9.418;2022-09-17T01:11:59;98330.08;;;13.11;48.97
59154;BME280;44935;48.944;9.418;2022-09-17T01:14:43;98329.04;;;13.09;48.38
59154;BME280;44935;48.944;9.418;2022-09-17T01:17:23;98326.40;;;12.43;49.95
59154;BME280;44935;48.944;9.418;2022-09-17T01:20:29;98323.26;;;12.95;49.86
59154;BME280;44935;48.944;9.418;2022-09-17T01:23:30;98325.15;;;12.12;50.48
59154;BME280;44935;48.944;9.418;2022-09-17T01:26:19;98323.43;;;12.37;50.62
59154;BME280;44935;48.944;9.418;2022-09-17T01:28:59;98324.83;;;12.44;51.03
59154;BME280;44935;48.944;9.418;2022-09-17T01:31:39;98323.26;;;12.06;50.70
59154;BME280;44935;48.944;9.418;2022-09-17T01:34:17;98321.97;;;12.21;50.91
59154;BME280;44935;48.944;9.418;2022-09-17T01:36:55;98321.85;;;12.07;51.83
59154;BME280;44935;48.944;9.418;2022-09-17T01:39:37;98322.04;;;11.99;52.52
59154;BME280;44935;48.944;9.418;2022-09-17T01:42:15;98318.78;;;11.78;52.73
59154;BME280;44935;48.944;9.418;2022-09-17T01:44:49;98320.16;;;12.00;52.47
59154;BME280;44935;48.944;9.418;2022-09-17T01:47:22;98322.33;;;11.46;52.31
59154;BME280;44935;48.944;9.418;2022-09-17T01:49:54;98327.88;;;11.77;51.99
59154;BME280;44935;48.944;9.418;2022-09-17T01:52:24;98330.08;;;11.88;51.78
59154;BME280;44935;48.944;9.418;2022-09-17T01:54:58;98327.87;;;11.89;52.69
59154;BME280;44935;48.944;9.418;2022-09-17T01:57:31;98325.26;;;11.66;52.87
59154;BME280;44935;48.944;9.418;2022-09-17T02:00:04;98325.69;;;11.68;52.42
59154;BME280;44935;48.944;9.418;2022-09-17T02:02:41;98325.17;;;11.63;52.67
59154;BME280;44935;48.944;9.418;2022-09-17T02:05:14;98324.29;;;12.02;51.95
59154;BME280;44935;48.944;9.418;2022-09-17T02:07:48;98327.94;;;11.92;51.29
59154;BME280;44935;48.944;9.418;2022-09-17T02:10:20;98335.06;;;11.63;51.82
59154;BME280;44935;48.944;9.418;2022-09-17T02:12:56;98336.99;;;10.82;53.49
59154;BME280;44935;48.944;9.418;2022-09-17T02:15:28;98335.57;;;10.82;53.89
59154;BME280;44935;48.944;9.418;2022-09-17T02:18:02;98333.42;;;11.35;53.29
59154;BME280;44935;48.944;9.418;2022-09-17T02:20:38;98328.45;;;11.30;53.12
59154;BME280;44935;48.944;9.418;2022-09-17T02:23:12;98322.61;;;10.80;54.31
59154;BME280;44935;48.944;9.418;2022-09-17T02:25:45;98325.20;;;10.58;54.55
59154;BME280;44935;48.944;9.418;2022-09-17T02:28:18;98333.10;;;10.28;55.25
59154;BME280;44935;48.944;9.418;2022-09-17T02:30:47;98337.39;;;10.94;54.27
59154;BME280;44935;48.944;9.418;2022-09-17T02:33:14;98336.35;;;10.89;54.23
59154;BME280;44935;48.944;9.418;2022-09-17T02:35:42;98328.13;;;10.44;55.09
59154;BME280;44935;48.944;9.418;2022-09-17T02:38:10;98329.81;;;10.21;55.25
59154;BME280;44935;48.944;9.418;2022-09-17T02:40:44;98329.51;;;10.80;54.83
59154;BME280;44935;48.944;9.418;2022-09-17T02:43:18;98331.32;;;10.85;54.43
59154;BME280;44935;48.944;9.418;2022-09-17T02:45:54;98332.90;;;10.82;54.70
59154;BME280;44935;48.944;9.418;2022-09-17T02:48:37;98330.60;;;11.17;53.46
59154;BME280;44935;48.944;9.418;2022-09-17T02:51:20;98329.50;;;10.78;54.16
59154;BME280;44935;48.944;9.418;2022-09-17T02:53:56;98328.65;;;11.00;54.39
59154;BME280;44935;48.944;9.418;2022-09-17T02:56:32;98326.90;;;11.38;53.61
59154;BME280;44935;48.944;9.418;2022-09-17T02:59:08;98324.10;;;11.38;53.57
59154;BME280;44935;48.944;9.418;2022-09-17T03:01:43;98322.74;;;11.75;52.79
59154;BME280;44935;48.944;9.418;2022-09-17T03:04:15;98316.72;;;12.00;52.44
59154;BME280;44935;48.944;9.418;2022-09-17T03:06:45;98316.88;;;11.67;52.53
59154;BME280;44935;48.944;9.418;2022-09-17T03:09:18;98321.03;;;11.26;53.40
59154;BME280;44935;48.944;9.418;2022-09-17T03:11:45;98321.69;;;11.52;53.10
59154;BME280;44935;48.944;9.418;2022-09-17T03:14:12;98324.35;;;11.65;52.87
59154;BME280;44935;48.944;9.418;2022-09-17T03:16:39;98326.53;;;11.12;54.22
59154;BME280;44935;48.944;9.418;2022-09-17T03:19:06;98327.10;;;11.02;53.46
59154;BME280;44935;48.944;9.418;2022-09-17T03:21:38;98319.22;;;10.77;54.49
59154;BME280;44935;48.944;9.418;2022-09-17T03:24:05;98318.63;;;11.13;53.83
59154;BME280;44935;48.944;9.418;2022-09-17T03:26:33;98320.33;;;11.11;54.06
59154;BME280;44935;48.944;9.418;2022-09-17T03:29:00;98319.29;;;10.88;54.18
59154;BME280;44935;48.944;9.418;2022-09-17T03:31:27;98318.91;;;10.86;54.34
59154;BME280;44935;48.944;9.418;2022-09-17T03:33:54;98319.69;;;11.17;53.70
59154;BME280;44935;48.944;9.418;2022-09-17T03:36:21;98319.04;;;10.63;54.32
59154;BME280;44935;48.944;9.418;2022-09-17T03:38:48;98321.83;;;11.48;52.84
59154;BME280;44935;48.944;9.418;2022-09-17T03:41:19;98326.41;;;11.56;52.62
59154;BME280;44935;48.944;9.418;2022-09-17T03:43:46;98327.73;;;11.11;52.68
59154;BME280;44935;48.944;9.418;2022-09-17T03:46:13;98330.03;;;11.30;52.49
59154;BME280;44935;48.944;9.418;2022-09-17T03:48:40;98337.45;;;11.21;52.97
59154;BME280;44935;48.944;9.418;2022-09-17T03:51:07;98339.58;;;11.27;52.68
59154;BME280;44935;48.944;9.418;2022-09-17T03:53:33;98341.80;;;10.99;53.26
59154;BME280;44935;48.944;9.418;2022-09-17T03:56:03;98341.13;;;10.21;54.50
59154;BME280;44935;48.944;9.418;2022-09-17T03:58:31;98339.53;;;10.32;54.58
59154;BME280;44935;48.944;9.418;2022-09-17T04:00:59;98338.19;;;10.36;54.42
59154;BME280;44935;48.944;9.418;2022-09-17T04:03:27;98340.22;;;10.08;55.06
59154;BME280;44935;48.944;9.418;2022-09-17T04:05:55;98342.87;;;10.13;55.30
59154;BME280;44935;48.944;9.418;2022-09-17T04:08:23;98346.26;;;10.26;54.60
59154;BME280;44935;48.944;9.418;2022-09-17T04:10:50;98343.21;;;10.45;54.18
59154;BME280;44935;48.944;9.418;2022-09-17T04:13:18;98350.75;;;9.77;55.38
59154;BME280;44935;48.944;9.418;2022-09-17T04:15:47;98351.25;;;9.92;56.06
59154;BME280;44935;48.944;9.418;2022-09-17T04:18:14;98345.71;;;10.18;55.75
59154;BME280;44935;48.944;9.418;2022-09-17T04:20:47;98344.16;;;10.33;54.92
59154;BME280;44935;48.944;9.418;2022-09-17T04:23:14;98348.24;;;9.62;56.70
59154;BME280;44935;48.944;9.418;2022-09-17T04:25:41;98343.28;;;8.47;59.29
59154;BME280;44935;48.944;9.418;2022-09-17T04:28:08;98342.25;;;9.38;58.00
59154;BME280;44935;48.944;9.418;2022-09-17T04:30:35;98342.72;;;9.74;57.03
59154;BME280;44935;48.944;9.418;2022-09-17T04:33:03;98348.67;;;9.48;57.44
59154;BME280;44935;48.944;9.418;2022-09-17T04:35:30;98351.02;;;9.70;56.76
59154;BME280;44935;48.944;9.418;2022-09-17T04:37:57;98352.72;;;9.39;57.60
59154;BME280;44935;48.944;9.418;2022-09-17T04:40:25;98356.65;;;10.24;56.16
59154;BME280;44935;48.944;9.418;2022-09-17T04:42:53;98359.87;;;9.35;57.39
59154;BME280;44935;48.944;9.418;2022-09-17T04:45:20;98360.77;;;9.86;56.55
59154;BME280;44935;48.944;9.418;2022-09-17T04:47:53;98363.89;;;9.56;56.69
59154;BME280;44935;48.944;9.418;2022-09-17T04:50:20;98367.90;;;9.60;56.87
59154;BME280;44935;48.944;9.418;2022-09-17T04:52:48;98369.60;;;9.61;57.30
59154;BME280;44935;48.944;9.418;2022-09-17T04:55:16;98365.10;;;9.38;57.46
59154;BME280;44935;48.944;9.418;2022-09-17T04:57:45;98367.04;;;9.56;57.06
59154;BME280;44935;48.944;9.418;2022-09-17T05:00:13;98371.15;;;9.45;57.11
59154;BME280;44935;48.944;9.418;2022-09-17T05:02:47;98370.46;;;9.59;57.10
59154;BME280;44935;48.944;9.418;2022-09-17T05:05:15;98371.75;;;9.37;57.06
59154;BME280;44935;48.944;9.418;2022-09-17T05:07:43;98377.89;;;9.02;58.10
59154;BME280;44935;48.944;9.418;2022-09-17T05:10:12;98379.42;;;8.91;58.63
59154;BME280;44935;48.944;9.418;2022-09-17T05:12:40;98384.01;;;8.72;58.82
59154;BME280;44935;48.944;9.418;2022-09-17T05:15:07;98383.22;;;8.91;58.50
59154;BME280;44935;48.944;9.418;2022-09-17T05:17:34;98389.36;;;9.74;56.91
59154;BME280;44935;48.944;9.418;2022-09-17T05:20:01;98393.60;;;9.21;57.44
59154;BME280;44935;48.944;9.418;2022-09-17T05:22:29;98398.86;;;9.89;56.37
59154;BME280;44935;48.944;9.418;2022-09-17T05:24:56;98395.58;;;10.31;55.12
59154;BME280;44935;48.944;9.418;2022-09-17T05:27:23;98397.87;;;10.37;54.35
59154;BME280;44935;48.944;9.418;2022-09-17T05:29:49;98398.74;;;10.81;53.14
59154;BME280;44935;48.944;9.418;2022-09-17T05:32:16;98399.84;;;10.60;53.57
59154;BME280;44935;48.944;9.418;2022-09-17T05:34:48;98400.87;;;10.27;54.36
59154;BME280;44935;48.944;9.418;2022-09-17T05:37:15;98398.94;;;10.41;54.27
59154;BME280;44935;48.944;9.418;2022-09-17T05:39:42;98401.61;;;10.27;54.60
59154;BME280;44935;48.944;9.418;2022-09-17T05:42:09;98402.91;;;9.71;56.36
59154;BME280;44935;48.944;9.418;2022-09-17T05:44:36;98407.30;;;10.34;55.05
59154;BME280;44935;48.944;9.418;2022-09-17T05:47:03;98404.00;;;10.28;54.85
59154;BME280;44935;48.944;9.418;2022-09-17T05:49:30;98409.97;;;9.65;56.82
59154;BME280;44935;48.944;9.418;2022-09-17T05:52:02;98410.22;;;9.20;57.02
59154;BME280;44935;48.944;9.418;2022-09-17T05:54:29;98410.15;;;9.57;56.70
59154;BME280;44935;48.944;9.418;2022-09-17T05:56:56;98409.65;;;9.22;58.29
59154;BME280;44935;48.944;9.418;2022-09-17T05:59:23;98418.10;;;9.43;57.52
59154;BME280;44935;48.944;9.418;2022-09-17T06:01:50;98417.30;;;9.20;58.41
59154;BME280;44935;48.944;9.418;2022-09-17T06:04:17;98419.33;;;8.91;58.67
59154;BME280;44935;48.944;9.418;2022-09-17T06:06:43;98426.53;;;9.75;56.57
59154;BME280;44935;48.944;9.418;2022-09-17T06:09:11;98422.52;;;9.25;57.74
59154;BME280;44935;48.944;9.418;2022-09-17T06:11:38;98427.65;;;8.59;59.39
59154;BME280;44935;48.944;9.418;2022-09-17T06:14:05;98426.70;;;8.52;60.19
59154;BME280;44935;48.944;9.418;2022-09-17T06:16:32;98427.36;;;8.88;58.55
59154;BME280;44935;48.944;9.418;2022-09-17T06:18:59;98428.19;;;8.67;59.76
59154;BME280;44935;48.944;9.418;2022-09-17T06:21:26;98433.56;;;8.73;59.26
59154;BME280;44935;48.944;9.418;2022-09-17T06:23:52;98431.94;;;9.15;58.00
59154;BME280;44935;48.944;9.418;2022-09-17T06:26:19;98433.95;;;8.89;58.81
59154;BME280;44935;48.944;9.418;2022-09-17T06:28:46;98439.88;;;9.00;57.88
59154;BME280;44935;48.944;9.418;2022-09-17T06:31:13;98436.93;;;8.44;59.30
59154;BME280;44935;48.944;9.418;2022-09-17T06:33:40;98439.79;;;8.64;59.89
59154;BME280;44935;48.944;9.418;2022-09-17T06:36:08;98441.48;;;8.33;60.48
59154;BME280;44935;48.944;9.418;2022-09-17T06:38:36;98438.75;;;9.02;58.11
59154;BME280;44935;48.944;9.418;2022-09-17T06:41:09;98444.46;;;8.64;59.12
59154;BME280;44935;48.944;9.418;2022-09-17T06:43:36;98445.03;;;8.85;58.61
59154;BME280;44935;48.944;9.418;2022-09-17T06:46:04;98445.64;;;8.90;58.90
59154;BME280;44935;48.944;9.418;2022-09-17T06:48:33;98447.57;;;8.87;58.46
59154;BME280;44935;48.944;9.418;2022-09-17T06:51:02;98446.89;;;7.91;59.85
59154;BME280;44935;48.944;9.418;2022-09-17T06:53:30;98445.65;;;9.03;58.27
59154;BME280;44935;48.944;9.418;2022-09-17T06:55:59;98446.78;;;9.07;58.16
59154;BME280;44935;48.944;9.418;2022-09-17T06:58:28;98452.35;;;9.75;56.83
59154;BME280;44935;48.944;9.418;2022-09-17T07:01:01;98448.45;;;9.19;57.41
59154;BME280;44935;48.944;9.418;2022-09-17T07:03:30;98450.09;;;9.08;57.52
59154;BME280;44935;48.944;9.418;2022-09-17T07:05:57;98454.82;;;8.73;58.22
59154;BME280;44935;48.944;9.418;2022-09-17T07:08:24;98457.82;;;8.65;58.88
59154;BME280;44935;48.944;9.418;2022-09-17T07:10:54;98464.07;;;8.87;59.52
59154;BME280;44935;48.944;9.418;2022-09-17T07:13:26;98457.13;;;8.80;60.47
59154;BME280;44935;48.944;9.418;2022-09-17T07:15:53;98465.21;;;8.33;61.35
59154;BME280;44935;48.944;9.418;2022-09-17T07:18:21;98468.03;;;8.71;61.84
59154;BME280;44935;48.944;9.418;2022-09-17T07:20:54;98472.64;;;8.54;63.16
59154;BME280;44935;48.944;9.418;2022-09-17T07:23:23;98469.26;;;8.52;63.14
59154;BME280;44935;48.944;9.418;2022-09-17T07:25:51;98468.67;;;8.29;63.90
59154;BME280;44935;48.944;9.418;2022-09-17T07:28:18;98471.82;;;8.67;62.67
59154;BME280;44935;48.944;9.418;2022-09-17T07:30:46;98473.08;;;9.64;60.41
59154;BME280;44935;48.944;9.418;2022-09-17T07:33:14;98472.71;;;8.72;62.99
59154;BME280;44935;48.944;9.418;2022-09-17T07:35:41;98474.43;;;9.32;61.81
59154;BME280;44935;48.944;9.418;2022-09-17T07:38:08;98475.62;;;9.11;61.52
59154;BME280;44935;48.944;9.418;2022-09-17T07:40:35;98482.43;;;8.95;62.14
59154;BME280;44935;48.944;9.418;2022-09-17T07:43:02;98485.42;;;8.86;61.66
59154;BME280;44935;48.944;9.418;2022-09-17T07:45:29;98489.03;;;9.23;61.53
59154;BME280;44935;48.944;9.418;2022-09-17T07:47:56;98489.78;;;8.36;62.29
59154;BME280;44935;48.944;9.418;2022-09-17T07:50:23;98491.18;;;8.63;61.98
59154;BME280;44935;48.944;9.418;2022-09-17T07:52:49;98493.74;;;8.62;63.16
59154;BME280;44935;48.944;9.418;2022-09-17T07:55:16;98499.26;;;8.65;62.76
59154;BME280;44935;48.944;9.418;2022-09-17T07:57:50;98500.31;;;8.58;62.80
59154;BME280;44935;48.944;9.418;2022-09-17T08:00:17;98503.35;;;8.85;62.48
59154;BME280;44935;48.944;9.418;2022-09-17T08:02:44;98502.73;;;8.62;63.34
59154;BME280;44935;48.944;9.418;2022-09-17T08:05:11;98507.90;;;8.30;64.36
59154;BME280;44935;48.944;9.418;2022-09-17T08:07:37;98505.40;;;8.92;62.67
59154;BME280;44935;48.944;9.418;2022-09-17T08:10:05;98507.74;;;9.03;62.67
59154;BME280;44935;48.944;9.418;2022-09-17T08:12:32;98514.39;;;9.37;61.67
59154;BME280;44935;48.944;9.418;2022-09-17T08:14:59;98515.28;;;8.78;62.39
59154;BME280;44935;48.944;9.418;2022-09-17T08:17:26;98515.46;;;8.31;63.26
59154;BME280;44935;48.944;9.418;2022-09-17T08:19:53;98518.02;;;8.66;63.94
59154;BME280;44935;48.944;9.418;2022-09-17T08:22:19;98510.56;;;9.01;62.92
59154;BME280;44935;48.944;9.418;2022-09-17T08:24:46;98519.69;;;8.54;63.38
59154;BME280;44935;48.944;9.418;2022-09-17T08:27:13;98517.74;;;8.50;64.00
59154;BME280;44935;48.944;9.418;2022-09-17T08:29:40;98514.24;;;9.23;62.09
59154;BME280;44935;48.944;9.418;2022-09-17T08:32:07;98515.05;;;9.02;61.96
59154;BME280;44935;48.944;9.418;2022-09-17T08:34:34;98512.26;;;9.11;61.61
59154;BME280;44935;48.944;9.418;2022-09-17T08:37:01;98505.48;;;9.29;61.65
59154;BME280;44935;48.944;9.418;2022-09-17T08:39:28;98509.32;;;9.56;60.45
59154;BME280;44935;48.944;9.418;2022-09-17T08:42:03;98508.40;;;9.38;60.48
59154;BME280;44935;48.944;9.418;2022-09-17T08:44:39;98508.29;;;8.97;61.99
59154;BME280;44935;48.944;9.418;2022-09-17T08:47:16;98509.56;;;9.91;60.36
59154;BME280;44935;48.944;9.418;2022-09-17T08:49:49;98517.56;;;10.13;59.84
59154;BME280;44935;48.944;9.418;2022-09-17T08:52:33;98519.92;;;10.38;59.47
59154;BME280;44935;48.944;9.418;2022-09-17T08:55:10;98516.27;;;9.15;61.62
59154;BME280;44935;48.944;9.418;2022-09-17T08:57:59;98520.57;;;9.59;60.96
59154;BME280;44935;48.944;9.418;2022-09-17T09:00:35;98526.98;;;8.64;64.11
59154;BME280;44935;48.944;9.418;2022-09-17T09:03:20;98527.80;;;8.49;64.22
59154;BME280;44935;48.944;9.418;2022-09-17T09:05:57;98527.88;;;9.08;62.95
59154;BME280;44935;48.944;9.418;2022-09-17T09:08:30;98526.99;;;9.41;62.54
59154;BME280;44935;48.944;9.418;2022-09-17T09:11:02;98527.18;;;9.81;61.71
59154;BME280;44935;48.944;9.418;2022-09-17T09:13:35;98524.03;;;9.48;60.44
59154;BME280;44935;48.944;9.418;2022-09-17T09:16:09;98527.03;;;9.40;61.34
59154;BME280;44935;48.944;9.418;2022-09-17T09:18:40;98525.29;;;10.61;60.17
59154;BME280;44935;48.944;9.418;2022-09-17T09:21:20;98514.32;;;9.97;60.55
59154;BME280;44935;48.944;9.418;2022-09-17T09:23:52;98517.12;;;10.31;60.55
59154;BME280;44935;48.944;9.418;2022-09-17T09:26:22;98516.15;;;10.25;60.74
59154;BME280;44935;48.944;9.418;2022-09-17T09:29:03;98513.12;;;10.48;59.50
59154;BME280;44935;48.944;9.418;2022-09-17T09:31:45;98513.66;;;10.84;57.19
59154;BME280;44935;48.944;9.418;2022-09-17T09:34:14;98511.10;;;11.44;57.28
59154;BME280;44935;48.944;9.418;2022-09-17T09:36:46;98512.27;;;11.35;57.10
59154;BME280;44935;48.944;9.418;2022-09-17T09:39:19;98511.11;;;11.43;55.06
59154;BME280;44935;48.944;9.418;2022-09-17T09:41:50;98515.65;;;11.41;55.60
59154;BME280;44935;48.944;9.418;2022-09-17T09:44:18;98513.20;;;11.36;55.85
59154;BME280;44935;48.944;9.418;2022-09-17T09:47:07;98508.42;;;11.67;54.97
59154;BME280;44935;48.944;9.418;2022-09-17T09:49:48;98509.64;;;11.80;54.52
59154;BME280;44935;48.944;9.418;2022-09-17T09:52:29;98519.80;;;10.95;56.02
59154;BME280;44935;48.944;9.418;2022-09-17T09:55:12;98518.83;;;11.05;56.08
59154;BME280;44935;48.944;9.418;2022-09-17T09:57:54;98521.77;;;11.09;55.85
59154;BME280;44935;48.944;9.418;2022-09-17T10:00:34;98520.44;;;10.48;56.33
59154;BME280;44935;48.944;9.418;2022-09-17T10:03:08;98517.54;;;11.28;55.12
59154;BME280;44935;48.944;9.418;2022-09-17T10:05:38;98513.44;;;10.04;56.32
59154;BME280;44935;48.944;9.418;2022-09-17T10:08:14;98511.63;;;9.89;58.11
59154;BME280;44935;48.944;9.418;2022-09-17T10:10:53;98516.92;;;10.45;56.49
59154;BME280;44935;48.944;9.418;2022-09-17T10:13:21;98513.50;;;11.31;55.35
59154;BME280;44935;48.944;9.418;2022-09-17T10:15:49;98513.96;;;11.07;56.51
59154;BME280;44935;48.944;9.418;2022-09-17T10:18:18;98512.25;;;11.04;56.42
59154;BME280;44935;48.944;9.418;2022-09-17T10:20:52;98514.55;;;11.34;55.29
59154;BME280;44935;48.944;9.418;2022-09-17T10:23:27;98513.04;;;11.71;54.14
59154;BME280;44935;48.944;9.418;2022-09-17T10:25:55;98513.28;;;10.42;55.02
59154;BME280;44935;48.944;9.418;2022-09-17T10:28:38;98506.72;;;11.26;54.90
59154;BME280;44935;48.944;9.418;2022-09-17T10:31:10;98502.79;;;11.65;53.57
59154;BME280;44935;48.944;9.418;2022-09-17T10:33:49;98499.35;;;12.03;51.89
59154;BME280;44935;48.944;9.418;2022-09-17T10:36:36;98497.52;;;12.35;51.07
59154;BME280;44935;48.944;9.418;2022-09-17T10:39:27;98491.43;;;12.10;50.16
59154;BME280;44935;48.944;9.418;2022-09-17T10:41:57;98492.37;;;11.78;51.34
59154;BME280;44935;48.944;9.418;2022-09-17T10:44:26;98496.87;;;12.38;51.52
59154;BME280;44935;48.944;9.418;2022-09-17T10:46:54;98499.78;;;11.63;54.17
59154;BME280;44935;48.944;9.418;2022-09-17T10:49:35;98502.32;;;12.20;53.99
59154;BME280;44935;48.944;9.418;2022-09-17T10:52:06;98502.07;;;11.54;53.28
59154;BME280;44935;48.944;9.418;2022-09-17T10:54:48;98499.84;;;12.07;53.64
59154;BME280;44935;48.944;9.418;2022-09-17T10:57:24;98493.92;;;12.35;51.73
59154;BME280;44935;48.944;9.418;2022-09-17T11:00:03;98489.44;;;13.21;51.35
59154;BME280;44935;48.944;9.418;2022-09-17T11:05:26;98479.29;;;11.74;54.10
59154;BME280;44935;48.944;9.418;2022-09-17T11:08:03;98473.83;;;11.64;52.98
59154;BME280;44935;48.944;9.418;2022-09-17T11:10:37;98471.40;;;12.18;52.80
59154;BME280;44935;48.944;9.418;2022-09-17T11:13:15;98472.58;;;11.56;51.09
59154;BME280;44935;48.944;9.418;2022-09-17T11:16:01;98478.70;;;11.66;51.79
59154;BME280;44935;48.944;9.418;2022-09-17T11:18:36;98497.97;;;11.80;51.99
59154;BME280;44935;48.944;9.418;2022-09-17T11:21:31;98527.81;;;10.31;57.65
59154;BME280;44935;48.944;9.418;2022-09-17T11:24:15;98526.72;;;8.75;60.45
59154;BME280;44935;48.944;9.418;2022-09-17T11:26:53;98519.68;;;9.33;58.49
59154;BME280;44935;48.944;9.418;2022-09-17T11:29:57;98510.37;;;9.31;59.62
59154;BME280;44935;48.944;9.418;2022-09-17T11:32:46;98495.27;;;11.54;54.54
59154;BME280;44935;48.944;9.418;2022-09-17T11:35:18;98478.60;;;9.60;56.83
59154;BME280;44935;48.944;9.418;2022-09-17T11:37:52;98490.30;;;11.14;54.26
59154;BME280;44935;48.944;9.418;2022-09-17T11:40:25;98492.66;;;9.55;58.10
59154;BME280;44935;48.944;9.418;2022-09-17T11:43:00;98486.92;;;11.46;54.29
59154;BME280;44935;48.944;9.418;2022-09-17T11:45:32;98486.45;;;10.94;55.30
59154;BME280;44935;48.944;9.418;2022-09-17T11:48:06;98491.56;;;9.93;58.10
59154;BME280;44935;48.944;9.418;2022-09-17T11:50:40;98490.32;;;11.77;55.10
59154;BME280;44935;48.944;9.418;2022-09-17T11:53:14;98487.46;;;11.69;55.08
59154;BME280;44935;48.944;9.418;2022-09-17T11:55:48;98489.70;;;12.44;52.24
59154;BME280;44935;48.944;9.418;2022-09-17T11:58:25;98486.40;;;13.32;51.90
59154;BME280;44935;48.944;9.418;2022-09-17T12:01:03;98480.24;;;13.71;53.72
59154;BME280;44935;48.944;9.418;2022-09-17T12:03:39;98475.85;;;13.82;54.74
59154;BME280;44935;48.944;9.418;2022-09-17T12:06:10;98469.30;;;13.65;52.85
59154;BME280;44935;48.944;9.418;2022-09-17T12:08:45;98467.30;;;13.53;52.30
59154;BME280;44935;48.944;9.418;2022-09-17T12:11:19;98459.44;;;13.84;53.92
59154;BME280;44935;48.944;9.418;2022-09-17T12:13:51;98455.45;;;14.06;51.64
59154;BME280;44935;48.944;9.418;2022-09-17T12:16:24;98452.58;;;14.43;51.95
59154;BME280;44935;48.944;9.418;2022-09-17T12:18:58;98444.35;;;14.54;51.32
59154;BME280;44935;48.944;9.418;2022-09-17T12:21:30;98436.74;;;14.70;51.22
59154;BME280;44935;48.944;9.418;2022-09-17T12:24:06;98430.92;;;13.94;52.95
59154;BME280;44935;48.944;9.418;2022-09-17T12:26:54;98429.59;;;13.00;56.06
59154;BME280;44935;48.944;9.418;2022-09-17T12:29:35;98422.46;;;13.35;56.59
59154;BME280;44935;48.944;9.418;2022-09-17T12:32:27;98419.66;;;13.00;54.72
59154;BME280;44935;48.944;9.418;2022-09-17T12:35:03;98413.71;;;11.69;56.42
59154;BME280;44935;48.944;9.418;2022-09-17T12:37:41;98418.18;;;11.02;56.47
59154;BME280;44935;48.944;9.418;2022-09-17T12:40:20;98416.72;;;10.85;56.82
59154;BME280;44935;48.944;9.418;2022-09-17T12:43:02;98426.01;;;9.91;56.05
59154;BME280;44935;48.944;9.418;2022-09-17T12:45:43;98433.67;;;9.86;60.31
59154;BME280;44935;48.944;9.418;2022-09-17T12:48:33;98438.35;;;10.50;60.22
59154;BME280;44935;48.944;9.418;2022-09-17T12:51:16;98433.00;;;11.24;55.97
59154;BME280;44935;48.944;9.418;2022-09-17T12:53:53;98435.47;;;10.64;58.58
59154;BME280;44935;48.944;9.418;2022-09-17T12:56:35;98444.30;;;10.38;59.88
59154;BME280;44935;48.944;9.418;2022-09-17T12:59:08;98435.88;;;10.80;58.58
59154;BME280;44935;48.944;9.418;2022-09-17T13:01:42;98439.35;;;10.67;55.51
59154;BME280;44935;48.944;9.418;2022-09-17T13:04:23;98438.69;;;11.67;56.29
59154;BME280;44935;48.944;9.418;2022-09-17T13:07:37;98433.51;;;11.41;55.17
59154;BME280;44935;48.944;9.418;2022-09-17T13:10:27;98435.80;;;11.04;55.56
59154;BME280;44935;48.944;9.418;2022-09-17T13:13:06;98437.07;;;11.05;56.91
59154;BME280;44935;48.944;9.418;2022-09-17T13:15:45;98434.40;;;12.00;54.39
59154;BME280;44935;48.944;9.418;2022-09-17T13:18:21;98438.00;;;11.11;53.02
59154;BME280;44935;48.944;9.418;2022-09-17T13:20:58;98452.85;;;10.78;55.61
59154;BME280;44935;48.944;9.418;2022-09-17T13:23:38;98447.91;;;11.14;55.39
59154;BME280;44935;48.944;9.418;2022-09-17T13:26:07;98455.16;;;10.75;55.58
59154;BME280;44935;48.944;9.418;2022-09-17T13:28:43;98452.23;;;11.06;56.17
59154;BME280;44935;48.944;9.418;2022-09-17T13:31:11;98451.52;;;10.87;57.10
59154;BME280;44935;48.944;9.418;2022-09-17T13:33:57;98455.82;;;10.74;56.18
59154;BME280;44935;48.944;9.418;2022-09-17T13:36:44;98449.91;;;11.02;55.69